Ridgefield, Connecticut
Current Conditions -  °F | °C
As of 2:53 AM on Saturday 01 Nov 2014 (Local Time) from KDXR Reporting Station
Overcast Overcast  
Wind Chill: 40°   Ceiling: 6000
Heat Index: 44°   Visibility: 10mi
Dew Point: 37°   Wind: 8mph
Humidity: 76%   Direction: 40°NE
Pressure: 29.88"   Gusts: NA
Location:  41.28°N, 73.5°W
Report Text: KDXR 010653Z AUTO 04007KT 10SM FEW047 OVC060 07/03 A2988 RMK AO2 SLP119 T00670028
Loading
Personal Weather Stations






























Interactive Weather Map
Tropical Storm Tracking
New forecast layout! Learn more

10-Day Weather Forecast

Advertisements
Track Severe Weather on mobile